createdAt,value
2019-05-16T00:00:44.893Z,0.00
2019-05-16T00:01:45.035Z,0.00
2019-05-16T00:02:45.187Z,0.00
2019-05-16T00:03:45.330Z,0.00
2019-05-16T00:04:45.477Z,0.00
2019-05-16T00:05:51.491Z,0.00
2019-05-16T00:06:47.983Z,0.00
2019-05-16T00:07:45.923Z,0.00
2019-05-16T00:08:48.137Z,0.00
2019-05-16T00:09:48.258Z,0.00
2019-05-16T00:10:48.592Z,0.00
2019-05-16T00:11:48.720Z,0.00
2019-05-16T00:12:48.655Z,0.00
2019-05-16T00:13:48.935Z,0.00
2019-05-16T00:14:48.886Z,0.00
2019-05-16T00:15:48.104Z,0.00
2019-05-16T00:16:48.382Z,0.00
2019-05-16T00:17:48.778Z,0.00
2019-05-16T00:18:48.029Z,0.00
2019-05-16T00:19:48.389Z,0.00
2019-05-16T00:20:49.247Z,0.00
2019-05-16T00:21:48.809Z,0.00
2019-05-16T00:22:48.550Z,0.00
2019-05-16T00:23:48.697Z,0.00
2019-05-16T00:24:48.814Z,0.00
2019-05-16T00:25:48.588Z,0.00
2019-05-16T00:26:48.741Z,0.00
2019-05-16T00:27:48.879Z,0.00
2019-05-16T00:28:49.029Z,0.00
2019-05-16T00:29:49.178Z,0.00
2019-05-16T00:30:49.332Z,0.00
2019-05-16T00:31:49.473Z,0.00
2019-05-16T00:32:49.620Z,0.00
2019-05-16T00:33:49.768Z,0.00
2019-05-16T00:34:49.921Z,0.00
2019-05-16T00:36:02.195Z,0.00
2019-05-16T00:36:50.217Z,0.00
2019-05-16T00:37:50.364Z,0.00
2019-05-16T00:38:50.514Z,0.00
2019-05-16T00:39:50.667Z,0.00
2019-05-16T00:40:50.813Z,0.00
2019-05-16T00:41:50.965Z,0.00
2019-05-16T00:42:51.110Z,0.00
2019-05-16T00:43:51.257Z,0.00
2019-05-16T00:44:51.406Z,0.00
2019-05-16T00:45:51.555Z,0.00
2019-05-16T00:46:51.703Z,0.00
2019-05-16T00:47:51.849Z,0.00
2019-05-16T00:48:51.999Z,0.00
2019-05-16T00:49:52.149Z,0.00
2019-05-16T00:50:52.295Z,0.00
2019-05-16T00:51:52.443Z,0.00
2019-05-16T00:52:52.607Z,0.00
2019-05-16T00:53:52.735Z,0.00
2019-05-16T00:54:52.884Z,0.00
2019-05-16T00:55:53.034Z,0.00
2019-05-16T00:56:53.181Z,0.00
2019-05-16T00:57:53.327Z,0.00
2019-05-16T00:58:53.477Z,0.00
2019-05-16T00:59:53.625Z,0.00
2019-05-16T01:00:53.773Z,0.00
2019-05-16T01:01:53.921Z,0.00
2019-05-16T01:02:54.068Z,0.00
2019-05-16T01:03:54.217Z,0.00
2019-05-16T01:04:54.365Z,0.00
2019-05-16T01:05:54.513Z,0.00
2019-05-16T01:06:54.662Z,0.00
2019-05-16T01:07:54.811Z,0.00
2019-05-16T01:08:54.961Z,0.00
2019-05-16T01:09:55.131Z,0.00
2019-05-16T01:10:55.246Z,0.00
2019-05-16T01:11:55.393Z,0.00
2019-05-16T01:12:55.540Z,0.00
2019-05-16T01:13:57.743Z,0.00
2019-05-16T01:14:55.837Z,0.00
2019-05-16T01:15:57.977Z,0.00
2019-05-16T01:16:58.079Z,0.00
2019-05-16T01:17:58.722Z,0.00
2019-05-16T01:18:58.869Z,0.00
2019-05-16T01:19:57.859Z,0.00
2019-05-16T01:20:58.557Z,0.00
2019-05-16T01:21:58.993Z,0.00
2019-05-16T01:22:58.139Z,0.00
2019-05-16T01:23:58.604Z,0.00
2019-05-16T01:24:58.467Z,0.00
2019-05-16T01:25:58.794Z,0.00
2019-05-16T01:26:57.836Z,0.00
2019-05-16T01:27:58.288Z,0.00
2019-05-16T01:28:57.908Z,0.00
2019-05-16T01:29:58.463Z,0.00
2019-05-16T01:30:58.261Z,0.00
2019-05-16T01:31:59.055Z,0.00
2019-05-16T01:32:58.499Z,0.00
2019-05-16T01:33:58.646Z,0.00
2019-05-16T01:34:59.019Z,0.00
2019-05-16T01:35:58.958Z,0.00
2019-05-16T01:36:59.197Z,0.00
2019-05-16T01:37:59.234Z,0.00
2019-05-16T01:38:59.385Z,0.00
2019-05-16T01:39:59.532Z,0.00
2019-05-16T01:40:59.679Z,0.00
2019-05-16T01:41:59.829Z,0.00
2019-05-16T01:42:59.977Z,0.00
2019-05-16T01:44:00.122Z,0.00
2019-05-16T01:45:00.274Z,0.00
2019-05-16T01:46:00.420Z,0.00
2019-05-16T01:47:00.570Z,0.00
2019-05-16T01:48:00.719Z,0.00
2019-05-16T01:49:00.868Z,0.00
2019-05-16T01:50:01.015Z,0.00
2019-05-16T01:51:01.163Z,0.00
2019-05-16T01:52:01.310Z,0.00
2019-05-16T01:53:01.462Z,0.00
2019-05-16T01:54:01.609Z,0.00
2019-05-16T01:55:01.760Z,0.00
2019-05-16T01:56:01.907Z,0.00
2019-05-16T01:57:02.057Z,0.00
2019-05-16T01:58:02.204Z,0.00
2019-05-16T01:59:02.352Z,0.00
2019-05-16T02:00:02.500Z,0.00
2019-05-16T02:01:12.384Z,0.00
2019-05-16T02:02:02.798Z,0.00
2019-05-16T02:03:02.946Z,0.00
2019-05-16T02:04:03.095Z,0.00
2019-05-16T02:05:03.244Z,0.00
2019-05-16T02:06:03.390Z,0.00
2019-05-16T02:07:03.541Z,0.00
2019-05-16T02:08:03.684Z,0.00
2019-05-16T02:09:03.834Z,0.00
2019-05-16T02:10:03.987Z,0.00
2019-05-16T02:11:04.206Z,0.00
2019-05-16T02:12:04.274Z,0.00
2019-05-16T02:13:04.423Z,0.00
2019-05-16T02:14:04.571Z,0.00
2019-05-16T02:15:04.718Z,0.00
2019-05-16T02:16:04.869Z,0.00
2019-05-16T02:17:05.017Z,0.00
2019-05-16T02:18:05.167Z,0.00
2019-05-16T02:19:05.314Z,0.00
2019-05-16T02:20:05.461Z,0.00
2019-05-16T02:21:07.731Z,0.00
2019-05-16T02:22:05.756Z,0.00
2019-05-16T02:23:07.894Z,0.00
2019-05-16T02:24:06.049Z,0.00
2019-05-16T02:25:07.729Z,0.00
2019-05-16T02:26:07.949Z,0.00
2019-05-16T02:27:09.336Z,0.00
2019-05-16T02:28:06.640Z,0.00
2019-05-16T02:29:06.793Z,0.00
2019-05-16T02:30:06.944Z,0.00
2019-05-16T02:31:07.075Z,0.00
2019-05-16T02:32:07.233Z,0.00
2019-05-16T02:33:07.373Z,0.00
2019-05-16T02:34:11.505Z,0.00
2019-05-16T02:35:07.657Z,0.00
2019-05-16T02:36:10.715Z,0.00
2019-05-16T02:37:20.288Z,0.00
2019-05-16T02:38:11.166Z,0.00
2019-05-16T02:39:10.887Z,0.00
2019-05-16T02:40:11.565Z,0.00
2019-05-16T02:41:10.621Z,0.00
2019-05-16T02:42:11.835Z,0.00
2019-05-16T02:43:12.204Z,0.00
2019-05-16T02:44:11.824Z,0.00
2019-05-16T02:45:10.986Z,0.00
2019-05-16T02:46:12.010Z,0.00
2019-05-16T02:47:10.782Z,0.00
2019-05-16T02:48:10.988Z,0.00
2019-05-16T02:49:11.589Z,0.00
2019-05-16T02:50:12.422Z,0.00
2019-05-16T02:51:10.984Z,0.00
2019-05-16T02:52:10.844Z,0.00
2019-05-16T02:53:12.827Z,0.00
2019-05-16T02:54:11.236Z,0.00
2019-05-16T02:55:11.733Z,0.00
2019-05-16T02:56:12.135Z,0.00
2019-05-16T02:57:11.512Z,0.00
2019-05-16T02:58:11.611Z,0.00
2019-05-16T02:59:11.977Z,0.00
2019-05-16T03:00:12.276Z,0.00
2019-05-16T03:01:11.505Z,0.00
2019-05-16T03:02:11.793Z,0.00
2019-05-16T03:03:12.263Z,0.00
2019-05-16T03:04:11.942Z,0.00
2019-05-16T03:05:12.748Z,0.00
2019-05-16T03:06:12.237Z,0.00
2019-05-16T03:07:30.298Z,0.00
2019-05-16T03:08:12.529Z,0.00
2019-05-16T03:09:12.676Z,0.00
2019-05-16T03:10:12.824Z,0.00
2019-05-16T03:11:12.976Z,0.00
2019-05-16T03:12:13.117Z,0.00
2019-05-16T03:13:13.265Z,0.00
2019-05-16T03:14:13.442Z,0.00
2019-05-16T03:15:13.564Z,0.00
2019-05-16T03:16:13.715Z,0.00
2019-05-16T03:17:13.862Z,0.00
2019-05-16T03:18:14.010Z,0.00
2019-05-16T03:19:14.157Z,0.00
2019-05-16T03:20:14.306Z,0.00
2019-05-16T03:21:14.449Z,0.00
2019-05-16T03:22:14.607Z,0.00
2019-05-16T03:23:14.750Z,0.00
2019-05-16T03:24:14.902Z,0.00
2019-05-16T03:25:15.049Z,0.00
2019-05-16T03:26:15.201Z,0.00
2019-05-16T03:27:15.366Z,0.00
2019-05-16T03:28:15.521Z,0.00
2019-05-16T03:29:15.660Z,0.00
2019-05-16T03:30:17.081Z,5.63
2019-05-16T03:31:16.191Z,5.63
2019-05-16T03:32:16.128Z,5.63
2019-05-16T03:33:24.180Z,5.63
2019-05-16T03:34:17.379Z,5.63
2019-05-16T03:35:17.167Z,5.63
2019-05-16T03:36:16.700Z,5.63
2019-05-16T03:37:16.856Z,5.63
2019-05-16T03:38:16.993Z,5.63
2019-05-16T03:39:17.146Z,5.63
2019-05-16T03:40:17.288Z,5.63
2019-05-16T03:41:17.430Z,5.63
2019-05-16T03:42:20.282Z,5.63
2019-05-16T03:43:17.733Z,11.25
2019-05-16T03:44:20.807Z,11.25
2019-05-16T03:45:20.883Z,11.25
2019-05-16T03:46:21.219Z,11.25
2019-05-16T03:47:21.658Z,11.25
2019-05-16T03:48:21.314Z,11.25
2019-05-16T03:49:21.028Z,11.25
2019-05-16T03:50:21.679Z,11.25
2019-05-16T03:51:21.514Z,11.25
2019-05-16T03:52:20.752Z,11.25
2019-05-16T03:53:21.291Z,11.25
2019-05-16T03:54:21.130Z,11.25
2019-05-16T03:55:21.348Z,11.25
2019-05-16T03:56:21.991Z,11.25
2019-05-16T03:57:21.312Z,11.25
2019-05-16T03:58:22.603Z,11.25
2019-05-16T03:59:21.595Z,11.25
2019-05-16T04:00:21.133Z,11.25
2019-05-16T04:01:21.002Z,11.25
2019-05-16T04:02:21.553Z,11.25
2019-05-16T04:03:21.436Z,11.25
2019-05-16T04:04:21.294Z,11.25
2019-05-16T04:05:21.231Z,11.25
2019-05-16T04:06:22.110Z,11.25
2019-05-16T04:07:21.643Z,11.25
2019-05-16T04:08:24.492Z,11.25
2019-05-16T04:09:21.572Z,11.25
2019-05-16T04:10:21.796Z,11.25
2019-05-16T04:11:23.280Z,11.25
2019-05-16T04:12:22.005Z,11.25
2019-05-16T04:13:22.417Z,11.25
2019-05-16T04:14:22.300Z,11.25
2019-05-16T04:15:22.451Z,16.88
2019-05-16T04:16:22.599Z,16.88
2019-05-16T04:17:22.745Z,16.88
2019-05-16T04:18:22.921Z,16.88
2019-05-16T04:19:23.042Z,16.88
2019-05-16T04:20:23.193Z,16.88
2019-05-16T04:21:23.338Z,16.88
2019-05-16T04:22:23.484Z,16.88
2019-05-16T04:23:23.646Z,16.88
2019-05-16T04:24:23.785Z,16.88
2019-05-16T04:25:23.929Z,22.50
2019-05-16T04:26:24.077Z,22.50
2019-05-16T04:27:24.227Z,22.50
2019-05-16T04:28:24.373Z,22.50
2019-05-16T04:29:24.522Z,22.50
2019-05-16T04:30:24.668Z,22.50
2019-05-16T04:31:24.821Z,22.50
2019-05-16T04:32:24.968Z,22.50
2019-05-16T04:33:25.116Z,22.50
2019-05-16T04:34:25.262Z,22.50
2019-05-16T04:35:25.411Z,22.50
2019-05-16T04:36:25.562Z,28.13
2019-05-16T04:37:26.444Z,28.13
2019-05-16T04:38:39.726Z,28.13
2019-05-16T04:39:26.005Z,28.13
2019-05-16T04:40:26.160Z,33.75
2019-05-16T04:41:26.302Z,33.75
2019-05-16T04:42:26.454Z,33.75
2019-05-16T04:43:26.596Z,33.75
2019-05-16T04:44:26.745Z,39.38
2019-05-16T04:45:26.892Z,39.38
2019-05-16T04:46:27.062Z,39.38
2019-05-16T04:47:27.190Z,39.38
2019-05-16T04:48:27.338Z,39.38
2019-05-16T04:49:27.485Z,45.00
2019-05-16T04:50:30.945Z,45.00
2019-05-16T04:51:30.498Z,45.00
2019-05-16T04:52:30.514Z,45.00
2019-05-16T04:53:31.306Z,50.63
2019-05-16T04:54:30.838Z,50.63
2019-05-16T04:55:31.392Z,56.25
2019-05-16T04:56:30.818Z,56.25
2019-05-16T04:57:31.259Z,61.88
2019-05-16T04:58:31.421Z,61.88
2019-05-16T04:59:31.223Z,67.50
2019-05-16T05:00:31.877Z,73.13
2019-05-16T05:01:30.721Z,78.75
2019-05-16T05:02:31.000Z,78.75
2019-05-16T05:03:31.606Z,84.38
2019-05-16T05:04:30.550Z,90.00
2019-05-16T05:05:33.424Z,95.63
2019-05-16T05:06:31.244Z,106.88
2019-05-16T05:07:31.198Z,112.50
2019-05-16T05:08:32.308Z,118.13
2019-05-16T05:09:31.689Z,123.75
2019-05-16T05:10:31.204Z,135.00
2019-05-16T05:11:30.832Z,140.63
2019-05-16T05:12:31.616Z,146.25
2019-05-16T05:13:31.041Z,157.50
2019-05-16T05:14:31.186Z,163.13
2019-05-16T05:15:31.338Z,168.75
2019-05-16T05:16:31.490Z,168.75
2019-05-16T05:17:31.632Z,174.38
2019-05-16T05:18:31.781Z,174.38
2019-05-16T05:19:31.928Z,180.00
2019-05-16T05:20:32.076Z,180.00
2019-05-16T05:21:32.228Z,180.00
2019-05-16T05:22:32.369Z,180.00
2019-05-16T05:23:32.522Z,174.38
2019-05-16T05:24:32.666Z,174.38
2019-05-16T05:25:32.814Z,174.38
2019-05-16T05:26:32.965Z,174.38
2019-05-16T05:27:33.110Z,174.38
2019-05-16T05:28:33.259Z,174.38
2019-05-16T05:29:33.407Z,168.75
2019-05-16T05:30:33.553Z,168.75
2019-05-16T05:31:35.021Z,168.75
2019-05-16T05:32:33.848Z,168.75
2019-05-16T05:33:33.998Z,163.13
2019-05-16T05:34:34.149Z,157.50
2019-05-16T05:35:34.294Z,151.88
2019-05-16T05:36:34.448Z,146.25
2019-05-16T05:37:34.586Z,140.63
2019-05-16T05:38:34.734Z,135.00
2019-05-16T05:39:34.882Z,135.00
2019-05-16T05:40:35.029Z,129.38
2019-05-16T05:41:35.177Z,123.75
2019-05-16T05:42:35.326Z,123.75
2019-05-16T05:43:35.475Z,123.75
2019-05-16T05:44:35.622Z,129.38
2019-05-16T05:45:35.771Z,135.00
2019-05-16T05:46:35.919Z,146.25
2019-05-16T05:47:36.068Z,157.50
2019-05-16T05:48:36.218Z,168.75
2019-05-16T05:49:36.363Z,174.38
2019-05-16T05:50:36.510Z,185.63
2019-05-16T05:51:36.658Z,196.88
2019-05-16T05:52:36.805Z,202.50
2019-05-16T05:53:36.954Z,213.75
2019-05-16T05:54:37.101Z,219.38
2019-05-16T05:55:39.954Z,230.63
2019-05-16T05:56:39.669Z,241.88
2019-05-16T05:57:40.079Z,253.13
2019-05-16T05:58:37.692Z,258.75
2019-05-16T05:59:40.286Z,264.38
2019-05-16T06:00:40.415Z,275.63
2019-05-16T06:01:40.534Z,281.25
2019-05-16T06:02:40.315Z,281.25
2019-05-16T06:03:39.892Z,281.25
2019-05-16T06:04:39.563Z,270.00
2019-05-16T06:05:41.121Z,258.75
2019-05-16T06:06:42.768Z,247.50
2019-05-16T06:07:40.446Z,241.88
2019-05-16T06:08:40.961Z,236.25
2019-05-16T06:09:50.471Z,236.25
2019-05-16T06:10:40.525Z,236.25
2019-05-16T06:11:40.631Z,236.25
2019-05-16T06:12:40.850Z,230.63
2019-05-16T06:13:40.501Z,230.63
2019-05-16T06:14:41.902Z,236.25
2019-05-16T06:15:40.215Z,253.13
2019-05-16T06:16:40.420Z,275.63
2019-05-16T06:17:40.505Z,298.13
2019-05-16T06:18:40.657Z,331.88
2019-05-16T06:19:40.805Z,354.38
2019-05-16T06:20:40.954Z,365.63
2019-05-16T06:21:44.443Z,365.63
2019-05-16T06:22:41.247Z,360.00
2019-05-16T06:23:41.397Z,360.00
2019-05-16T06:24:41.544Z,354.38
2019-05-16T06:25:41.697Z,348.75
2019-05-16T06:26:41.842Z,337.50
2019-05-16T06:27:41.989Z,326.25
2019-05-16T06:28:42.151Z,309.38
2019-05-16T06:29:42.287Z,303.75
2019-05-16T06:30:42.444Z,292.50
2019-05-16T06:31:42.585Z,286.88
2019-05-16T06:32:42.737Z,286.88
2019-05-16T06:33:42.881Z,286.88
2019-05-16T06:34:43.028Z,292.50
2019-05-16T06:35:43.178Z,303.75
2019-05-16T06:36:43.326Z,315.00
2019-05-16T06:37:43.474Z,331.88
2019-05-16T06:38:43.671Z,348.75
2019-05-16T06:39:45.388Z,371.25
2019-05-16T06:40:43.918Z,393.75
2019-05-16T06:41:44.067Z,416.25
2019-05-16T06:42:44.215Z,438.75
2019-05-16T06:43:44.363Z,461.25
2019-05-16T06:44:44.514Z,478.13
2019-05-16T06:45:44.662Z,495.00
2019-05-16T06:47:00.680Z,523.13
2019-05-16T06:47:44.955Z,506.25
2019-05-16T06:48:45.104Z,506.25
2019-05-16T06:49:45.260Z,500.63
2019-05-16T06:50:45.402Z,495.00
2019-05-16T06:51:45.551Z,483.75
2019-05-16T06:52:45.984Z,483.75
2019-05-16T06:53:45.843Z,489.38
2019-05-16T06:54:45.983Z,495.00
2019-05-16T06:55:46.136Z,500.63
2019-05-16T06:56:46.282Z,506.25
2019-05-16T06:57:46.432Z,511.88
2019-05-16T06:58:50.950Z,517.50
2019-05-16T06:59:46.725Z,534.38
2019-05-16T07:00:46.883Z,551.25
2019-05-16T07:01:47.034Z,568.13
2019-05-16T07:02:49.702Z,585.00
2019-05-16T07:03:47.333Z,618.75
2019-05-16T07:04:47.480Z,630.00
2019-05-16T07:05:50.069Z,641.25
2019-05-16T07:06:56.156Z,635.63
2019-05-16T07:07:47.926Z,635.63
2019-05-16T07:08:50.536Z,624.38
2019-05-16T07:09:58.139Z,613.13
2019-05-16T07:10:50.496Z,601.88
2019-05-16T07:11:50.442Z,585.00
2019-05-16T07:12:50.375Z,573.75
2019-05-16T07:13:51.689Z,562.50
2019-05-16T07:14:50.520Z,545.63
2019-05-16T07:15:50.078Z,534.38
2019-05-16T07:16:49.719Z,534.38
2019-05-16T07:17:50.673Z,534.38
2019-05-16T07:18:50.668Z,534.38
2019-05-16T07:19:50.206Z,540.00
2019-05-16T07:20:51.091Z,534.38
2019-05-16T07:21:50.789Z,523.13
2019-05-16T07:22:50.459Z,506.25
2019-05-16T07:23:51.131Z,506.25
2019-05-16T07:24:50.610Z,506.25
2019-05-16T07:25:50.901Z,511.88
2019-05-16T07:26:50.769Z,523.13
2019-05-16T07:27:51.233Z,528.75
2019-05-16T07:28:51.740Z,545.63
2019-05-16T07:29:51.217Z,556.88
2019-05-16T07:30:51.366Z,568.13
2019-05-16T07:31:52.477Z,579.38
2019-05-16T07:32:51.658Z,590.63
2019-05-16T07:33:51.806Z,601.88
2019-05-16T07:34:51.955Z,601.88
2019-05-16T07:35:52.101Z,607.50
2019-05-16T07:36:52.249Z,618.75
2019-05-16T07:37:52.400Z,635.63
2019-05-16T07:38:52.549Z,652.50
2019-05-16T07:39:52.698Z,669.38
2019-05-16T07:40:52.846Z,691.88
2019-05-16T07:41:52.994Z,708.75
2019-05-16T07:42:53.147Z,720.00
2019-05-16T07:43:53.295Z,725.63
2019-05-16T07:44:53.442Z,742.50
2019-05-16T07:45:53.591Z,770.63
2019-05-16T07:46:53.745Z,776.25
2019-05-16T07:47:53.892Z,787.50
2019-05-16T07:48:54.036Z,787.50
2019-05-16T07:49:54.185Z,748.13
2019-05-16T07:50:54.334Z,731.25
2019-05-16T07:51:54.483Z,714.38
2019-05-16T07:52:54.634Z,680.63
2019-05-16T07:53:54.783Z,652.50
2019-05-16T07:54:54.933Z,618.75
2019-05-16T07:55:55.081Z,585.00
2019-05-16T07:56:59.295Z,551.25
2019-05-16T07:57:55.379Z,528.75
2019-05-16T07:58:55.528Z,517.50
2019-05-16T07:59:55.677Z,517.50
2019-05-16T08:01:02.414Z,517.50
2019-05-16T08:01:55.976Z,517.50
2019-05-16T08:02:56.124Z,517.50
2019-05-16T08:03:56.275Z,500.63
2019-05-16T08:04:56.422Z,500.63
2019-05-16T08:05:56.576Z,517.50
2019-05-16T08:06:56.723Z,556.88
2019-05-16T08:07:56.873Z,613.13
2019-05-16T08:08:57.024Z,658.13
2019-05-16T08:09:57.174Z,675.00
2019-05-16T08:10:57.330Z,691.88
2019-05-16T08:11:57.470Z,714.38
2019-05-16T08:13:03.079Z,725.63
2019-05-16T08:13:57.775Z,725.63
2019-05-16T08:15:00.563Z,725.63
2019-05-16T08:16:00.829Z,731.25
2019-05-16T08:17:00.943Z,736.88
2019-05-16T08:18:02.898Z,742.50
2019-05-16T08:19:00.692Z,748.13
2019-05-16T08:20:00.082Z,753.75
2019-05-16T08:21:01.042Z,753.75
2019-05-16T08:22:01.270Z,765.00
2019-05-16T08:23:00.820Z,781.88
2019-05-16T08:24:05.672Z,798.75
2019-05-16T08:25:00.194Z,810.00
2019-05-16T08:26:01.247Z,821.25
2019-05-16T08:27:01.301Z,849.38
2019-05-16T08:28:01.147Z,871.88
2019-05-16T08:29:02.017Z,871.88
2019-05-16T08:30:02.532Z,855.00
2019-05-16T08:33:20.809Z,821.25
2019-05-16T08:34:01.070Z,759.38
2019-05-16T08:35:01.440Z,742.50
2019-05-16T08:36:07.129Z,731.25
2019-05-16T08:37:01.331Z,720.00
2019-05-16T08:38:01.460Z,691.88
2019-05-16T08:39:01.523Z,658.13
2019-05-16T08:40:01.673Z,613.13
2019-05-16T08:41:11.723Z,556.88
2019-05-16T08:42:08.078Z,517.50
2019-05-16T08:43:02.117Z,472.50
2019-05-16T08:44:02.273Z,416.25
2019-05-16T08:45:02.421Z,371.25
2019-05-16T08:46:02.567Z,331.88
2019-05-16T08:48:02.867Z,303.75
2019-05-16T08:49:03.018Z,309.38
2019-05-16T08:50:03.196Z,320.63
2019-05-16T08:50:09.657Z,309.38
2019-05-16T08:50:09.748Z,770.63
2019-05-16T08:51:03.317Z,326.25
2019-05-16T08:52:03.485Z,326.25
2019-05-16T08:53:03.617Z,326.25
2019-05-16T08:54:03.765Z,320.63
2019-05-16T08:55:03.918Z,315.00
2019-05-16T08:56:04.064Z,309.38
2019-05-16T08:57:21.686Z,315.00
2019-05-16T08:58:04.365Z,315.00
2019-05-16T08:59:04.553Z,320.63
2019-05-16T09:00:04.689Z,337.50
2019-05-16T09:01:04.815Z,354.38
2019-05-16T09:02:04.968Z,382.50
2019-05-16T09:03:05.113Z,410.63
2019-05-16T09:04:05.264Z,427.50
2019-05-16T09:05:06.094Z,450.00
2019-05-16T09:06:05.562Z,466.88
2019-05-16T09:07:05.711Z,483.75
2019-05-16T09:08:05.860Z,495.00
2019-05-16T09:09:22.285Z,511.88
2019-05-16T09:10:34.342Z,540.00
2019-05-16T09:10:41.403Z,787.50
2019-05-16T09:11:26.922Z,568.13
2019-05-16T09:12:07.842Z,585.00
2019-05-16T09:13:07.283Z,585.00
2019-05-16T09:14:07.982Z,579.38
2019-05-16T09:15:07.634Z,585.00
2019-05-16T09:16:07.901Z,596.25
2019-05-16T09:17:07.598Z,596.25
2019-05-16T09:18:07.699Z,579.38
2019-05-16T09:19:07.880Z,562.50
2019-05-16T09:20:07.652Z,556.88
2019-05-16T09:21:07.810Z,562.50
2019-05-16T09:22:07.949Z,573.75
2019-05-16T09:23:08.099Z,601.88
2019-05-16T09:24:08.251Z,618.75
2019-05-16T09:25:08.435Z,624.38
2019-05-16T09:26:08.544Z,624.38
2019-05-16T09:27:12.515Z,613.13
2019-05-16T09:28:08.856Z,601.88
2019-05-16T09:29:09.005Z,590.63
2019-05-16T09:30:09.154Z,568.13
2019-05-16T09:31:09.305Z,534.38
2019-05-16T09:32:17.075Z,500.63
2019-05-16T09:33:09.606Z,466.88
2019-05-16T09:34:09.759Z,444.38
2019-05-16T09:35:09.906Z,427.50
2019-05-16T09:36:10.052Z,427.50
2019-05-16T09:37:10.204Z,433.13
2019-05-16T09:38:10.350Z,438.75
2019-05-16T09:39:10.500Z,444.38
2019-05-16T09:40:10.645Z,444.38
2019-05-16T09:41:10.797Z,450.00
2019-05-16T09:42:10.944Z,466.88
2019-05-16T09:43:11.094Z,489.38
2019-05-16T09:44:11.243Z,511.88
2019-05-16T09:45:11.393Z,523.13
2019-05-16T09:46:11.543Z,523.13
2019-05-16T09:47:11.691Z,506.25
2019-05-16T09:48:11.843Z,489.38
2019-05-16T09:49:19.607Z,466.88
2019-05-16T09:50:12.145Z,444.38
2019-05-16T09:51:12.291Z,433.13
2019-05-16T09:52:12.451Z,421.88
2019-05-16T09:53:12.598Z,416.25
2019-05-16T09:54:12.747Z,405.00
2019-05-16T09:55:12.897Z,405.00
2019-05-16T09:56:13.045Z,410.63
2019-05-16T09:57:13.196Z,416.25
2019-05-16T09:58:13.345Z,421.88
2019-05-16T09:59:13.494Z,421.88
2019-05-16T10:00:13.646Z,427.50
2019-05-16T10:01:13.790Z,433.13
2019-05-16T10:02:13.941Z,438.75
2019-05-16T10:03:14.089Z,444.38
2019-05-16T10:04:14.234Z,455.63
2019-05-16T10:05:16.803Z,461.25
2019-05-16T10:06:18.715Z,466.88
2019-05-16T10:07:17.624Z,461.25
2019-05-16T10:08:17.083Z,455.63
2019-05-16T10:09:17.247Z,444.38
2019-05-16T10:10:17.062Z,438.75
2019-05-16T10:11:18.145Z,438.75
2019-05-16T10:12:18.098Z,455.63
2019-05-16T10:13:18.262Z,478.13
2019-05-16T10:14:17.306Z,523.13
2019-05-16T10:15:17.612Z,579.38
2019-05-16T10:16:16.718Z,635.63
2019-05-16T10:17:17.773Z,686.25
2019-05-16T10:18:16.946Z,725.63
2019-05-16T10:19:16.955Z,759.38
2019-05-16T10:20:16.954Z,776.25
2019-05-16T10:21:20.297Z,793.13
2019-05-16T10:22:17.215Z,793.13
2019-05-16T10:23:18.095Z,793.13
2019-05-16T10:24:17.228Z,781.88
2019-05-16T10:25:19.612Z,770.63
2019-05-16T10:26:19.421Z,776.25
2019-05-16T10:27:17.668Z,798.75
2019-05-16T10:28:20.141Z,810.00
2019-05-16T10:29:18.521Z,793.13
2019-05-16T10:30:18.119Z,776.25
2019-05-16T10:31:18.270Z,753.75
2019-05-16T10:32:18.425Z,742.50
2019-05-16T10:33:19.085Z,736.88
2019-05-16T10:34:18.721Z,725.63
2019-05-16T10:35:18.871Z,714.38
2019-05-16T10:36:21.502Z,703.13
2019-05-16T10:37:19.178Z,697.50
2019-05-16T10:38:19.329Z,675.00
2019-05-16T10:39:19.478Z,658.13
2019-05-16T10:40:19.627Z,635.63
2019-05-16T10:41:19.775Z,613.13
2019-05-16T10:42:28.261Z,596.25
2019-05-16T10:43:20.088Z,579.38
2019-05-16T10:44:20.241Z,556.88
2019-05-16T10:45:20.396Z,528.75
2019-05-16T10:46:20.540Z,495.00
2019-05-16T10:47:20.687Z,466.88
2019-05-16T10:48:20.838Z,444.38
2019-05-16T10:49:33.395Z,433.13
2019-05-16T10:50:21.138Z,433.13
2019-05-16T10:51:23.905Z,444.38
2019-05-16T10:52:21.437Z,450.00
2019-05-16T10:53:51.481Z,461.25
2019-05-16T10:54:21.851Z,461.25
2019-05-16T10:55:22.012Z,444.38
2019-05-16T10:56:22.037Z,410.63
2019-05-16T10:57:22.256Z,376.88
2019-05-16T10:58:35.712Z,348.75
2019-05-16T10:59:58.486Z,315.00
2019-05-16T11:00:48.931Z,298.13
2019-05-16T11:01:27.798Z,275.63
2019-05-16T11:02:22.993Z,258.75
2019-05-16T11:03:23.101Z,247.50
2019-05-16T11:04:29.187Z,241.88
2019-05-16T11:05:30.501Z,236.25
2019-05-16T11:06:26.544Z,241.88
2019-05-16T11:07:23.687Z,247.50
2019-05-16T11:08:23.839Z,253.13
2019-05-16T11:09:23.978Z,264.38
2019-05-16T11:10:26.805Z,292.50
2019-05-16T11:11:24.277Z,303.75
2019-05-16T11:12:43.252Z,298.13
2019-05-16T11:13:24.574Z,292.50
2019-05-16T11:14:27.954Z,298.13
2019-05-16T11:15:27.602Z,286.88
2019-05-16T11:16:27.504Z,264.38
2019-05-16T11:17:27.852Z,253.13
2019-05-16T11:18:27.197Z,247.50
2019-05-16T11:19:28.092Z,253.13
2019-05-16T11:20:26.821Z,264.38
2019-05-16T11:21:26.808Z,292.50
2019-05-16T11:22:29.453Z,315.00
2019-05-16T11:23:30.887Z,315.00
2019-05-16T11:24:28.993Z,298.13
2019-05-16T11:25:31.803Z,286.88
2019-05-16T11:26:27.611Z,298.13
2019-05-16T11:27:26.649Z,303.75
2019-05-16T11:28:26.856Z,309.38
2019-05-16T11:29:26.941Z,309.38
2019-05-16T11:30:28.075Z,309.38
2019-05-16T11:31:27.239Z,320.63
2019-05-16T11:32:27.387Z,320.63
2019-05-16T11:33:28.115Z,315.00
2019-05-16T11:34:27.686Z,303.75
2019-05-16T11:35:27.840Z,286.88
2019-05-16T11:36:27.983Z,275.63
2019-05-16T11:37:28.133Z,275.63
2019-05-16T11:38:28.286Z,298.13
2019-05-16T11:39:28.432Z,320.63
2019-05-16T11:40:30.232Z,326.25
2019-05-16T11:41:28.728Z,326.25
2019-05-16T11:42:28.880Z,326.25
2019-05-16T11:43:29.030Z,315.00
2019-05-16T11:44:29.231Z,309.38
2019-05-16T11:45:29.322Z,309.38
2019-05-16T11:46:29.482Z,309.38
2019-05-16T11:47:29.620Z,315.00
2019-05-16T11:48:29.792Z,320.63
2019-05-16T11:49:29.923Z,320.63
2019-05-16T11:50:30.069Z,320.63
2019-05-16T11:51:30.217Z,320.63
2019-05-16T11:52:30.364Z,309.38
2019-05-16T11:53:30.513Z,298.13
2019-05-16T11:54:30.662Z,286.88
2019-05-16T11:55:33.310Z,270.00
2019-05-16T11:56:30.956Z,253.13
2019-05-16T11:57:31.100Z,230.63
2019-05-16T11:58:31.248Z,213.75
2019-05-16T11:59:31.399Z,196.88
2019-05-16T12:00:31.558Z,185.63
2019-05-16T12:01:31.692Z,185.63
2019-05-16T12:02:31.873Z,185.63
2019-05-16T12:03:31.996Z,185.63
2019-05-16T12:04:32.142Z,180.00
2019-05-16T12:05:32.297Z,185.63
2019-05-16T12:06:32.437Z,191.25
2019-05-16T12:07:34.712Z,185.63
2019-05-16T12:08:32.735Z,191.25
2019-05-16T12:09:35.057Z,196.88
2019-05-16T12:10:33.024Z,202.50
2019-05-16T12:11:33.173Z,219.38
2019-05-16T12:12:33.330Z,236.25
2019-05-16T12:13:33.471Z,247.50
2019-05-16T12:14:33.619Z,264.38
2019-05-16T12:15:33.773Z,270.00
2019-05-16T12:16:33.940Z,275.63
2019-05-16T12:17:34.066Z,286.88
2019-05-16T12:18:34.213Z,292.50
2019-05-16T12:19:37.836Z,303.75
2019-05-16T12:20:34.507Z,309.38
2019-05-16T12:21:34.655Z,303.75
2019-05-16T12:22:37.494Z,298.13
2019-05-16T12:23:37.273Z,292.50
2019-05-16T12:24:38.778Z,303.75
2019-05-16T12:25:36.828Z,298.13
2019-05-16T12:26:37.235Z,292.50
2019-05-16T12:27:41.692Z,298.13
2019-05-16T12:28:35.775Z,315.00
2019-05-16T12:29:37.315Z,331.88
2019-05-16T12:30:37.718Z,343.13
2019-05-16T12:31:37.327Z,331.88
2019-05-16T12:32:36.753Z,315.00
2019-05-16T12:33:37.327Z,286.88
2019-05-16T12:34:36.890Z,275.63
2019-05-16T12:35:37.074Z,275.63
2019-05-16T12:36:37.890Z,298.13
2019-05-16T12:37:37.469Z,320.63
2019-05-16T12:38:38.161Z,337.50
2019-05-16T12:39:38.011Z,331.88
2019-05-16T12:40:37.787Z,326.25
2019-05-16T12:41:41.043Z,309.38
2019-05-16T12:42:37.859Z,320.63
2019-05-16T12:43:49.306Z,371.25
2019-05-16T12:44:38.150Z,438.75
2019-05-16T12:45:38.911Z,461.25
2019-05-16T12:46:38.452Z,455.63